sensor_id;sensor_type;location;lat;lon;timestamp;P1;durP1;ratioP1;P2;durP2;ratioP2
53497;SDS011;39382;47.168;16.008;2024-03-02T00:00:06;35.88;;;18.75;;
53497;SDS011;39382;47.168;16.008;2024-03-02T00:02:42;34.75;;;17.42;;
53497;SDS011;39382;47.168;16.008;2024-03-02T00:05:20;39.47;;;17.95;;
53497;SDS011;39382;47.168;16.008;2024-03-02T00:10:23;37.83;;;19.58;;
53497;SDS011;39382;47.168;16.008;2024-03-02T00:12:54;30.83;;;17.77;;
53497;SDS011;39382;47.168;16.008;2024-03-02T00:18:07;36.97;;;17.35;;
53497;SDS011;39382;47.168;16.008;2024-03-02T00:20:40;36.20;;;17.98;;
53497;SDS011;39382;47.168;16.008;2024-03-02T00:23:07;38.63;;;17.77;;
53497;SDS011;39382;47.168;16.008;2024-03-02T00:25:43;39.90;;;19.10;;
53497;SDS011;39382;47.168;16.008;2024-03-02T00:28:25;35.15;;;17.60;;
53497;SDS011;39382;47.168;16.008;2024-03-02T00:33:34;35.53;;;17.38;;
53497;SDS011;39382;47.168;16.008;2024-03-02T00:36:01;36.65;;;18.08;;
53497;SDS011;39382;47.168;16.008;2024-03-02T00:38:31;40.80;;;17.55;;
53497;SDS011;39382;47.168;16.008;2024-03-02T00:40:58;33.42;;;17.63;;
53497;SDS011;39382;47.168;16.008;2024-03-02T00:46:19;33.10;;;15.73;;
53497;SDS011;39382;47.168;16.008;2024-03-02T00:48:51;39.42;;;18.65;;
53497;SDS011;39382;47.168;16.008;2024-03-02T00:51:22;33.85;;;18.15;;
53497;SDS011;39382;47.168;16.008;2024-03-02T00:53:49;31.90;;;17.10;;
53497;SDS011;39382;47.168;16.008;2024-03-02T00:56:17;40.17;;;16.98;;
53497;SDS011;39382;47.168;16.008;2024-03-02T00:58:43;31.75;;;16.83;;
53497;SDS011;39382;47.168;16.008;2024-03-02T01:01:09;31.70;;;17.38;;
53497;SDS011;39382;47.168;16.008;2024-03-02T01:03:35;36.63;;;17.55;;
53497;SDS011;39382;47.168;16.008;2024-03-02T01:06:02;36.75;;;17.48;;
53497;SDS011;39382;47.168;16.008;2024-03-02T01:08:28;32.42;;;16.20;;
53497;SDS011;39382;47.168;16.008;2024-03-02T01:10:54;31.13;;;16.85;;
53497;SDS011;39382;47.168;16.008;2024-03-02T01:13:20;42.88;;;20.55;;
53497;SDS011;39382;47.168;16.008;2024-03-02T01:15:47;32.97;;;17.33;;
53497;SDS011;39382;47.168;16.008;2024-03-02T01:18:12;33.72;;;16.20;;
53497;SDS011;39382;47.168;16.008;2024-03-02T01:20:38;33.05;;;17.48;;
53497;SDS011;39382;47.168;16.008;2024-03-02T01:23:04;36.63;;;17.20;;
53497;SDS011;39382;47.168;16.008;2024-03-02T01:25:29;31.85;;;17.77;;
53497;SDS011;39382;47.168;16.008;2024-03-02T01:27:55;36.13;;;15.68;;
53497;SDS011;39382;47.168;16.008;2024-03-02T01:30:21;34.13;;;17.27;;
53497;SDS011;39382;47.168;16.008;2024-03-02T01:32:46;36.65;;;16.33;;
53497;SDS011;39382;47.168;16.008;2024-03-02T01:35:12;36.50;;;17.55;;
53497;SDS011;39382;47.168;16.008;2024-03-02T01:37:38;34.92;;;17.90;;
53497;SDS011;39382;47.168;16.008;2024-03-02T01:40:03;36.88;;;16.75;;
53497;SDS011;39382;47.168;16.008;2024-03-02T01:42:34;33.78;;;15.68;;
53497;SDS011;39382;47.168;16.008;2024-03-02T01:45:06;42.25;;;18.85;;
53497;SDS011;39382;47.168;16.008;2024-03-02T01:47:34;33.03;;;16.73;;
53497;SDS011;39382;47.168;16.008;2024-03-02T01:50:00;41.75;;;18.17;;
53497;SDS011;39382;47.168;16.008;2024-03-02T01:52:26;38.55;;;17.88;;
53497;SDS011;39382;47.168;16.008;2024-03-02T01:54:52;39.22;;;17.10;;
53497;SDS011;39382;47.168;16.008;2024-03-02T01:57:18;33.05;;;15.88;;
53497;SDS011;39382;47.168;16.008;2024-03-02T01:59:44;33.22;;;16.35;;
53497;SDS011;39382;47.168;16.008;2024-03-02T02:02:13;44.53;;;17.90;;
53497;SDS011;39382;47.168;16.008;2024-03-02T02:04:39;39.17;;;16.85;;
53497;SDS011;39382;47.168;16.008;2024-03-02T02:07:05;39.97;;;17.42;;
53497;SDS011;39382;47.168;16.008;2024-03-02T02:09:31;39.83;;;17.42;;
53497;SDS011;39382;47.168;16.008;2024-03-02T02:11:57;42.90;;;18.55;;
53497;SDS011;39382;47.168;16.008;2024-03-02T02:14:23;34.47;;;15.82;;
53497;SDS011;39382;47.168;16.008;2024-03-02T02:16:49;38.85;;;16.38;;
53497;SDS011;39382;47.168;16.008;2024-03-02T02:19:14;39.08;;;18.10;;
53497;SDS011;39382;47.168;16.008;2024-03-02T02:21:43;43.60;;;17.30;;
53497;SDS011;39382;47.168;16.008;2024-03-02T02:24:09;43.03;;;18.73;;
53497;SDS011;39382;47.168;16.008;2024-03-02T02:26:35;43.15;;;18.80;;
53497;SDS011;39382;47.168;16.008;2024-03-02T02:29:01;41.13;;;17.15;;
53497;SDS011;39382;47.168;16.008;2024-03-02T02:31:27;38.45;;;17.92;;
53497;SDS011;39382;47.168;16.008;2024-03-02T02:34:01;38.47;;;16.77;;
53497;SDS011;39382;47.168;16.008;2024-03-02T02:36:26;38.13;;;16.77;;
53497;SDS011;39382;47.168;16.008;2024-03-02T02:38:52;39.08;;;18.13;;
53497;SDS011;39382;47.168;16.008;2024-03-02T02:41:18;33.40;;;16.58;;
53497;SDS011;39382;47.168;16.008;2024-03-02T02:43:43;38.47;;;18.00;;
53497;SDS011;39382;47.168;16.008;2024-03-02T02:46:09;42.63;;;18.63;;
53497;SDS011;39382;47.168;16.008;2024-03-02T02:48:35;36.75;;;18.15;;
53497;SDS011;39382;47.168;16.008;2024-03-02T02:51:01;47.90;;;19.70;;
53497;SDS011;39382;47.168;16.008;2024-03-02T02:53:27;42.30;;;18.00;;
53497;SDS011;39382;47.168;16.008;2024-03-02T02:55:52;40.65;;;17.00;;
53497;SDS011;39382;47.168;16.008;2024-03-02T02:58:18;40.78;;;19.67;;
53497;SDS011;39382;47.168;16.008;2024-03-02T03:00:43;41.05;;;17.13;;
53497;SDS011;39382;47.168;16.008;2024-03-02T03:03:09;36.58;;;17.08;;
53497;SDS011;39382;47.168;16.008;2024-03-02T03:05:35;43.33;;;18.23;;
53497;SDS011;39382;47.168;16.008;2024-03-02T03:08:01;39.78;;;17.67;;
53497;SDS011;39382;47.168;16.008;2024-03-02T03:10:26;41.97;;;17.85;;
53497;SDS011;39382;47.168;16.008;2024-03-02T03:12:52;38.17;;;16.65;;
53497;SDS011;39382;47.168;16.008;2024-03-02T03:15:21;38.65;;;16.92;;
53497;SDS011;39382;47.168;16.008;2024-03-02T03:17:46;44.42;;;17.40;;
53497;SDS011;39382;47.168;16.008;2024-03-02T03:20:12;44.10;;;19.20;;
53497;SDS011;39382;47.168;16.008;2024-03-02T03:22:39;49.13;;;17.08;;
53497;SDS011;39382;47.168;16.008;2024-03-02T03:25:05;42.20;;;18.27;;
53497;SDS011;39382;47.168;16.008;2024-03-02T03:27:33;40.70;;;16.90;;
53497;SDS011;39382;47.168;16.008;2024-03-02T03:29:58;43.70;;;18.88;;
53497;SDS011;39382;47.168;16.008;2024-03-02T03:32:24;40.80;;;18.13;;
53497;SDS011;39382;47.168;16.008;2024-03-02T03:34:50;40.72;;;16.70;;
53497;SDS011;39382;47.168;16.008;2024-03-02T03:37:15;41.83;;;18.95;;
53497;SDS011;39382;47.168;16.008;2024-03-02T03:39:41;43.00;;;17.30;;
53497;SDS011;39382;47.168;16.008;2024-03-02T03:42:07;34.60;;;16.20;;
53497;SDS011;39382;47.168;16.008;2024-03-02T03:44:32;41.20;;;16.85;;
53497;SDS011;39382;47.168;16.008;2024-03-02T03:46:59;44.53;;;18.33;;
53497;SDS011;39382;47.168;16.008;2024-03-02T03:49:27;37.65;;;16.83;;
53497;SDS011;39382;47.168;16.008;2024-03-02T03:51:52;46.22;;;17.40;;
53497;SDS011;39382;47.168;16.008;2024-03-02T03:54:18;43.78;;;17.10;;
53497;SDS011;39382;47.168;16.008;2024-03-02T03:56:43;41.47;;;16.70;;
53497;SDS011;39382;47.168;16.008;2024-03-02T03:59:09;48.80;;;17.92;;
53497;SDS011;39382;47.168;16.008;2024-03-02T04:01:35;50.83;;;19.55;;
53497;SDS011;39382;47.168;16.008;2024-03-02T04:04:00;40.75;;;16.73;;
53497;SDS011;39382;47.168;16.008;2024-03-02T04:06:29;42.40;;;17.38;;
53497;SDS011;39382;47.168;16.008;2024-03-02T04:08:55;36.67;;;15.43;;
53497;SDS011;39382;47.168;16.008;2024-03-02T04:11:21;39.85;;;15.75;;
53497;SDS011;39382;47.168;16.008;2024-03-02T04:13:47;33.10;;;16.15;;
53497;SDS011;39382;47.168;16.008;2024-03-02T04:16:12;37.22;;;16.38;;
53497;SDS011;39382;47.168;16.008;2024-03-02T04:18:38;32.55;;;15.48;;
53497;SDS011;39382;47.168;16.008;2024-03-02T04:21:04;37.50;;;16.27;;
53497;SDS011;39382;47.168;16.008;2024-03-02T04:23:30;39.75;;;16.45;;
53497;SDS011;39382;47.168;16.008;2024-03-02T04:25:56;37.00;;;15.40;;
53497;SDS011;39382;47.168;16.008;2024-03-02T04:28:21;37.25;;;14.85;;
53497;SDS011;39382;47.168;16.008;2024-03-02T04:30:47;40.58;;;16.70;;
53497;SDS011;39382;47.168;16.008;2024-03-02T04:33:13;36.38;;;15.75;;
53497;SDS011;39382;47.168;16.008;2024-03-02T04:35:38;29.40;;;14.82;;
53497;SDS011;39382;47.168;16.008;2024-03-02T04:38:04;36.25;;;14.68;;
53497;SDS011;39382;47.168;16.008;2024-03-02T04:40:30;29.70;;;15.13;;
53497;SDS011;39382;47.168;16.008;2024-03-02T04:42:57;34.80;;;15.40;;
53497;SDS011;39382;47.168;16.008;2024-03-02T04:45:24;35.20;;;14.95;;
53497;SDS011;39382;47.168;16.008;2024-03-02T04:47:49;35.67;;;16.38;;
53497;SDS011;39382;47.168;16.008;2024-03-02T04:50:15;40.05;;;15.18;;
53497;SDS011;39382;47.168;16.008;2024-03-02T04:52:41;34.63;;;13.77;;
53497;SDS011;39382;47.168;16.008;2024-03-02T04:55:07;32.35;;;13.82;;
53497;SDS011;39382;47.168;16.008;2024-03-02T04:58:00;37.00;;;13.82;;
53497;SDS011;39382;47.168;16.008;2024-03-02T05:00:26;30.77;;;13.80;;
53497;SDS011;39382;47.168;16.008;2024-03-02T05:02:51;35.88;;;14.82;;
53497;SDS011;39382;47.168;16.008;2024-03-02T05:05:17;30.92;;;13.82;;
53497;SDS011;39382;47.168;16.008;2024-03-02T05:07:42;31.48;;;13.63;;
53497;SDS011;39382;47.168;16.008;2024-03-02T05:10:09;33.38;;;13.98;;
53497;SDS011;39382;47.168;16.008;2024-03-02T05:12:35;37.30;;;16.70;;
53497;SDS011;39382;47.168;16.008;2024-03-02T05:15:10;35.30;;;16.40;;
53497;SDS011;39382;47.168;16.008;2024-03-02T05:17:39;36.13;;;15.30;;
53497;SDS011;39382;47.168;16.008;2024-03-02T05:20:06;30.88;;;14.13;;
53497;SDS011;39382;47.168;16.008;2024-03-02T05:22:35;35.63;;;15.50;;
53497;SDS011;39382;47.168;16.008;2024-03-02T05:25:05;33.38;;;14.25;;
53497;SDS011;39382;47.168;16.008;2024-03-02T05:27:31;31.00;;;13.95;;
53497;SDS011;39382;47.168;16.008;2024-03-02T05:30:00;40.17;;;15.60;;
53497;SDS011;39382;47.168;16.008;2024-03-02T05:32:26;42.95;;;16.17;;
53497;SDS011;39382;47.168;16.008;2024-03-02T05:34:51;37.35;;;14.63;;
53497;SDS011;39382;47.168;16.008;2024-03-02T05:37:17;33.33;;;15.18;;
53497;SDS011;39382;47.168;16.008;2024-03-02T05:39:43;30.85;;;13.45;;
53497;SDS011;39382;47.168;16.008;2024-03-02T05:42:09;28.90;;;13.30;;
53497;SDS011;39382;47.168;16.008;2024-03-02T05:44:38;30.33;;;14.18;;
53497;SDS011;39382;47.168;16.008;2024-03-02T05:47:03;28.60;;;13.00;;
53497;SDS011;39382;47.168;16.008;2024-03-02T05:49:29;31.20;;;13.80;;
53497;SDS011;39382;47.168;16.008;2024-03-02T05:51:55;32.17;;;12.93;;
53497;SDS011;39382;47.168;16.008;2024-03-02T05:54:21;28.08;;;12.45;;
53497;SDS011;39382;47.168;16.008;2024-03-02T05:56:46;23.95;;;12.10;;
53497;SDS011;39382;47.168;16.008;2024-03-02T05:59:12;29.92;;;12.38;;
53497;SDS011;39382;47.168;16.008;2024-03-02T06:01:47;27.17;;;13.05;;
53497;SDS011;39382;47.168;16.008;2024-03-02T06:04:15;29.67;;;12.07;;
53497;SDS011;39382;47.168;16.008;2024-03-02T06:06:41;23.25;;;10.82;;
53497;SDS011;39382;47.168;16.008;2024-03-02T06:09:07;31.10;;;13.90;;
53497;SDS011;39382;47.168;16.008;2024-03-02T06:11:36;34.85;;;14.23;;
53497;SDS011;39382;47.168;16.008;2024-03-02T06:14:02;30.50;;;14.32;;
53497;SDS011;39382;47.168;16.008;2024-03-02T06:16:28;25.83;;;11.52;;
53497;SDS011;39382;47.168;16.008;2024-03-02T06:18:55;26.90;;;11.77;;
53497;SDS011;39382;47.168;16.008;2024-03-02T06:21:22;27.63;;;12.32;;
53497;SDS011;39382;47.168;16.008;2024-03-02T06:23:48;26.58;;;13.20;;
53497;SDS011;39382;47.168;16.008;2024-03-02T06:26:14;27.08;;;12.98;;
53497;SDS011;39382;47.168;16.008;2024-03-02T06:28:40;24.52;;;11.50;;
53497;SDS011;39382;47.168;16.008;2024-03-02T06:31:06;27.30;;;12.43;;
53497;SDS011;39382;47.168;16.008;2024-03-02T06:33:31;28.15;;;10.93;;
53497;SDS011;39382;47.168;16.008;2024-03-02T06:35:57;31.92;;;12.25;;
53497;SDS011;39382;47.168;16.008;2024-03-02T06:38:23;25.10;;;12.63;;
53497;SDS011;39382;47.168;16.008;2024-03-02T06:40:48;23.30;;;12.10;;
53497;SDS011;39382;47.168;16.008;2024-03-02T06:43:14;29.90;;;13.40;;
53497;SDS011;39382;47.168;16.008;2024-03-02T06:45:40;30.83;;;16.23;;
53497;SDS011;39382;47.168;16.008;2024-03-02T06:48:06;30.25;;;19.08;;
53497;SDS011;39382;47.168;16.008;2024-03-02T06:50:32;29.10;;;16.60;;
53497;SDS011;39382;47.168;16.008;2024-03-02T06:52:58;30.98;;;16.20;;
53497;SDS011;39382;47.168;16.008;2024-03-02T06:55:23;32.63;;;15.93;;
53497;SDS011;39382;47.168;16.008;2024-03-02T06:57:52;30.75;;;16.20;;
53497;SDS011;39382;47.168;16.008;2024-03-02T07:00:18;35.85;;;17.40;;
53497;SDS011;39382;47.168;16.008;2024-03-02T07:02:45;31.95;;;14.48;;
53497;SDS011;39382;47.168;16.008;2024-03-02T07:05:11;30.92;;;14.02;;
53497;SDS011;39382;47.168;16.008;2024-03-02T07:07:37;30.30;;;12.90;;
53497;SDS011;39382;47.168;16.008;2024-03-02T07:10:03;30.92;;;14.95;;
53497;SDS011;39382;47.168;16.008;2024-03-02T07:12:30;28.75;;;13.10;;
53497;SDS011;39382;47.168;16.008;2024-03-02T07:14:56;31.60;;;14.25;;
53497;SDS011;39382;47.168;16.008;2024-03-02T07:17:28;28.52;;;15.18;;
53497;SDS011;39382;47.168;16.008;2024-03-02T07:19:54;33.80;;;14.25;;
53497;SDS011;39382;47.168;16.008;2024-03-02T07:22:20;33.80;;;16.45;;
53497;SDS011;39382;47.168;16.008;2024-03-02T07:24:45;39.90;;;17.30;;
53497;SDS011;39382;47.168;16.008;2024-03-02T07:27:12;38.88;;;17.40;;
53497;SDS011;39382;47.168;16.008;2024-03-02T07:29:38;35.88;;;16.02;;
53497;SDS011;39382;47.168;16.008;2024-03-02T07:32:05;42.47;;;16.80;;
53497;SDS011;39382;47.168;16.008;2024-03-02T07:34:31;35.65;;;16.75;;
53497;SDS011;39382;47.168;16.008;2024-03-02T07:36:57;33.30;;;15.85;;
53497;SDS011;39382;47.168;16.008;2024-03-02T07:39:23;37.88;;;16.70;;
53497;SDS011;39382;47.168;16.008;2024-03-02T07:41:49;29.60;;;17.33;;
53497;SDS011;39382;47.168;16.008;2024-03-02T07:44:15;42.08;;;20.27;;
53497;SDS011;39382;47.168;16.008;2024-03-02T07:46:44;39.97;;;20.38;;
53497;SDS011;39382;47.168;16.008;2024-03-02T07:49:11;34.90;;;17.42;;
53497;SDS011;39382;47.168;16.008;2024-03-02T07:51:39;35.58;;;17.10;;
53497;SDS011;39382;47.168;16.008;2024-03-02T07:54:05;37.08;;;19.95;;
53497;SDS011;39382;47.168;16.008;2024-03-02T07:56:30;31.08;;;16.27;;
53497;SDS011;39382;47.168;16.008;2024-03-02T07:58:56;35.55;;;16.38;;
53497;SDS011;39382;47.168;16.008;2024-03-02T08:01:26;34.60;;;16.38;;
53497;SDS011;39382;47.168;16.008;2024-03-02T08:03:52;33.10;;;15.02;;
53497;SDS011;39382;47.168;16.008;2024-03-02T08:06:18;37.17;;;15.13;;
53497;SDS011;39382;47.168;16.008;2024-03-02T08:08:46;34.55;;;17.35;;
53497;SDS011;39382;47.168;16.008;2024-03-02T08:11:12;31.33;;;15.77;;
53497;SDS011;39382;47.168;16.008;2024-03-02T08:13:38;35.95;;;15.77;;
53497;SDS011;39382;47.168;16.008;2024-03-02T08:16:03;32.97;;;16.33;;
53497;SDS011;39382;47.168;16.008;2024-03-02T08:18:32;32.50;;;14.52;;
53497;SDS011;39382;47.168;16.008;2024-03-02T08:20:58;37.72;;;15.30;;
53497;SDS011;39382;47.168;16.008;2024-03-02T08:23:24;28.98;;;14.52;;
53497;SDS011;39382;47.168;16.008;2024-03-02T08:25:50;28.42;;;13.40;;
53497;SDS011;39382;47.168;16.008;2024-03-02T08:28:15;33.63;;;15.82;;
53497;SDS011;39382;47.168;16.008;2024-03-02T08:30:42;34.60;;;16.50;;
53497;SDS011;39382;47.168;16.008;2024-03-02T08:33:08;31.65;;;15.90;;
53497;SDS011;39382;47.168;16.008;2024-03-02T08:35:33;32.67;;;14.98;;
53497;SDS011;39382;47.168;16.008;2024-03-02T08:38:02;30.02;;;14.95;;
53497;SDS011;39382;47.168;16.008;2024-03-02T08:40:28;28.42;;;14.45;;
53497;SDS011;39382;47.168;16.008;2024-03-02T08:42:54;25.08;;;13.70;;
53497;SDS011;39382;47.168;16.008;2024-03-02T08:45:20;32.08;;;14.75;;
53497;SDS011;39382;47.168;16.008;2024-03-02T08:47:46;31.58;;;14.70;;
53497;SDS011;39382;47.168;16.008;2024-03-02T08:50:12;32.33;;;14.43;;
53497;SDS011;39382;47.168;16.008;2024-03-02T08:52:37;29.17;;;14.30;;
53497;SDS011;39382;47.168;16.008;2024-03-02T08:55:03;29.27;;;14.18;;
53497;SDS011;39382;47.168;16.008;2024-03-02T08:57:29;28.17;;;14.50;;
53497;SDS011;39382;47.168;16.008;2024-03-02T08:59:55;28.98;;;14.38;;
53497;SDS011;39382;47.168;16.008;2024-03-02T09:02:21;29.20;;;14.63;;
53497;SDS011;39382;47.168;16.008;2024-03-02T09:04:48;30.67;;;13.35;;
53497;SDS011;39382;47.168;16.008;2024-03-02T09:07:14;30.33;;;13.75;;
53497;SDS011;39382;47.168;16.008;2024-03-02T09:09:40;26.58;;;12.68;;
53497;SDS011;39382;47.168;16.008;2024-03-02T09:12:06;23.17;;;12.63;;
53497;SDS011;39382;47.168;16.008;2024-03-02T09:14:32;28.52;;;13.98;;
53497;SDS011;39382;47.168;16.008;2024-03-02T09:16:58;39.47;;;19.02;;
53497;SDS011;39382;47.168;16.008;2024-03-02T09:19:23;32.13;;;15.63;;
53497;SDS011;39382;47.168;16.008;2024-03-02T09:21:49;22.48;;;12.35;;
53497;SDS011;39382;47.168;16.008;2024-03-02T09:24:15;27.77;;;13.48;;
53497;SDS011;39382;47.168;16.008;2024-03-02T09:26:41;22.88;;;12.95;;
53497;SDS011;39382;47.168;16.008;2024-03-02T09:29:06;26.80;;;13.63;;
53497;SDS011;39382;47.168;16.008;2024-03-02T09:31:32;31.73;;;12.93;;
53497;SDS011;39382;47.168;16.008;2024-03-02T09:33:58;26.08;;;12.68;;
53497;SDS011;39382;47.168;16.008;2024-03-02T09:36:23;25.58;;;13.68;;
53497;SDS011;39382;47.168;16.008;2024-03-02T09:38:49;29.55;;;12.82;;
53497;SDS011;39382;47.168;16.008;2024-03-02T09:41:15;28.25;;;13.25;;
53497;SDS011;39382;47.168;16.008;2024-03-02T09:43:41;24.70;;;13.95;;
53497;SDS011;39382;47.168;16.008;2024-03-02T09:46:10;21.88;;;11.95;;
53497;SDS011;39382;47.168;16.008;2024-03-02T09:48:35;22.80;;;12.68;;
53497;SDS011;39382;47.168;16.008;2024-03-02T09:51:01;26.05;;;13.27;;
53497;SDS011;39382;47.168;16.008;2024-03-02T09:53:31;22.55;;;12.70;;
53497;SDS011;39382;47.168;16.008;2024-03-02T09:56:01;24.70;;;11.45;;
53497;SDS011;39382;47.168;16.008;2024-03-02T09:58:27;26.70;;;13.45;;
53497;SDS011;39382;47.168;16.008;2024-03-02T10:00:53;20.05;;;11.95;;
53497;SDS011;39382;47.168;16.008;2024-03-02T10:03:19;24.83;;;12.13;;
53497;SDS011;39382;47.168;16.008;2024-03-02T10:05:46;25.85;;;12.05;;
53497;SDS011;39382;47.168;16.008;2024-03-02T10:08:11;26.75;;;14.35;;
53497;SDS011;39382;47.168;16.008;2024-03-02T10:10:37;23.88;;;12.32;;
53497;SDS011;39382;47.168;16.008;2024-03-02T10:13:12;18.70;;;10.48;;
53497;SDS011;39382;47.168;16.008;2024-03-02T10:15:39;30.48;;;12.55;;
53497;SDS011;39382;47.168;16.008;2024-03-02T10:18:08;22.55;;;10.95;;
53497;SDS011;39382;47.168;16.008;2024-03-02T10:20:35;22.25;;;12.15;;
53497;SDS011;39382;47.168;16.008;2024-03-02T10:23:11;20.35;;;11.90;;
53497;SDS011;39382;47.168;16.008;2024-03-02T10:25:41;25.42;;;11.93;;
53497;SDS011;39382;47.168;16.008;2024-03-02T10:28:08;27.30;;;12.98;;
53497;SDS011;39382;47.168;16.008;2024-03-02T10:30:34;28.92;;;14.93;;
53497;SDS011;39382;47.168;16.008;2024-03-02T10:33:01;23.42;;;13.68;;
53497;SDS011;39382;47.168;16.008;2024-03-02T10:35:27;26.80;;;11.93;;
53497;SDS011;39382;47.168;16.008;2024-03-02T10:37:53;25.23;;;12.60;;
53497;SDS011;39382;47.168;16.008;2024-03-02T10:40:22;22.75;;;11.85;;
53497;SDS011;39382;47.168;16.008;2024-03-02T10:42:48;25.90;;;13.70;;
53497;SDS011;39382;47.168;16.008;2024-03-02T10:45:15;29.98;;;16.55;;
53497;SDS011;39382;47.168;16.008;2024-03-02T10:47:44;24.30;;;11.23;;
53497;SDS011;39382;47.168;16.008;2024-03-02T10:50:12;24.15;;;13.25;;
53497;SDS011;39382;47.168;16.008;2024-03-02T10:52:38;23.38;;;11.52;;
53497;SDS011;39382;47.168;16.008;2024-03-02T10:55:05;23.67;;;12.18;;
53497;SDS011;39382;47.168;16.008;2024-03-02T10:57:53;26.90;;;12.70;;
53497;SDS011;39382;47.168;16.008;2024-03-02T11:00:19;22.50;;;11.75;;
53497;SDS011;39382;47.168;16.008;2024-03-02T11:02:51;24.10;;;11.23;;
53497;SDS011;39382;47.168;16.008;2024-03-02T11:05:29;21.95;;;11.35;;
53497;SDS011;39382;47.168;16.008;2024-03-02T11:08:06;20.40;;;11.35;;
53497;SDS011;39382;47.168;16.008;2024-03-02T11:10:37;22.35;;;11.52;;
53497;SDS011;39382;47.168;16.008;2024-03-02T11:13:16;20.67;;;10.82;;
53497;SDS011;39382;47.168;16.008;2024-03-02T11:15:49;19.27;;;9.90;;
53497;SDS011;39382;47.168;16.008;2024-03-02T11:18:18;19.40;;;9.52;;
53497;SDS011;39382;47.168;16.008;2024-03-02T11:20:44;19.25;;;9.27;;
53497;SDS011;39382;47.168;16.008;2024-03-02T11:23:11;16.85;;;9.82;;
53497;SDS011;39382;47.168;16.008;2024-03-02T11:25:37;19.42;;;9.48;;
53497;SDS011;39382;47.168;16.008;2024-03-02T11:28:05;23.38;;;10.07;;
53497;SDS011;39382;47.168;16.008;2024-03-02T11:32:57;17.98;;;10.45;;
53497;SDS011;39382;47.168;16.008;2024-03-02T11:35:24;20.40;;;9.43;;
53497;SDS011;39382;47.168;16.008;2024-03-02T11:37:56;18.98;;;10.60;;
53497;SDS011;39382;47.168;16.008;2024-03-02T11:40:27;15.55;;;8.77;;
53497;SDS011;39382;47.168;16.008;2024-03-02T11:42:53;16.67;;;9.27;;
53497;SDS011;39382;47.168;16.008;2024-03-02T11:45:23;18.50;;;10.13;;
53497;SDS011;39382;47.168;16.008;2024-03-02T11:47:50;17.92;;;8.88;;
53497;SDS011;39382;47.168;16.008;2024-03-02T11:50:23;18.67;;;10.05;;
53497;SDS011;39382;47.168;16.008;2024-03-02T11:52:55;23.42;;;10.15;;
53497;SDS011;39382;47.168;16.008;2024-03-02T11:55:21;20.45;;;8.32;;
53497;SDS011;39382;47.168;16.008;2024-03-02T11:57:47;16.25;;;8.38;;
53497;SDS011;39382;47.168;16.008;2024-03-02T12:00:18;18.00;;;9.48;;
53497;SDS011;39382;47.168;16.008;2024-03-02T12:02:44;20.95;;;8.82;;
53497;SDS011;39382;47.168;16.008;2024-03-02T12:05:14;17.05;;;9.27;;
53497;SDS011;39382;47.168;16.008;2024-03-02T12:07:41;19.80;;;10.05;;
53497;SDS011;39382;47.168;16.008;2024-03-02T12:10:08;17.08;;;9.73;;
53497;SDS011;39382;47.168;16.008;2024-03-02T12:12:34;16.40;;;7.88;;
53497;SDS011;39382;47.168;16.008;2024-03-02T12:15:00;23.13;;;8.90;;
53497;SDS011;39382;47.168;16.008;2024-03-02T12:17:26;19.00;;;10.10;;
53497;SDS011;39382;47.168;16.008;2024-03-02T12:19:51;18.00;;;8.13;;
53497;SDS011;39382;47.168;16.008;2024-03-02T12:22:18;22.60;;;8.85;;
53497;SDS011;39382;47.168;16.008;2024-03-02T12:24:43;14.52;;;7.35;;
53497;SDS011;39382;47.168;16.008;2024-03-02T12:27:13;17.20;;;8.05;;
53497;SDS011;39382;47.168;16.008;2024-03-02T12:29:40;12.57;;;7.15;;
53497;SDS011;39382;47.168;16.008;2024-03-02T12:32:06;18.27;;;7.13;;
53497;SDS011;39382;47.168;16.008;2024-03-02T12:34:32;12.55;;;6.88;;
53497;SDS011;39382;47.168;16.008;2024-03-02T12:36:57;11.77;;;6.13;;
53497;SDS011;39382;47.168;16.008;2024-03-02T12:39:23;14.40;;;6.88;;
53497;SDS011;39382;47.168;16.008;2024-03-02T12:41:49;9.85;;;6.07;;
53497;SDS011;39382;47.168;16.008;2024-03-02T12:44:16;9.60;;;5.85;;
53497;SDS011;39382;47.168;16.008;2024-03-02T12:46:42;10.50;;;6.20;;
53497;SDS011;39382;47.168;16.008;2024-03-02T12:49:09;16.83;;;6.63;;
53497;SDS011;39382;47.168;16.008;2024-03-02T12:51:39;11.32;;;5.72;;
53497;SDS011;39382;47.168;16.008;2024-03-02T12:54:06;9.48;;;5.22;;
53497;SDS011;39382;47.168;16.008;2024-03-02T12:56:32;11.23;;;5.00;;
53497;SDS011;39382;47.168;16.008;2024-03-02T12:58:58;8.65;;;6.25;;
53497;SDS011;39382;47.168;16.008;2024-03-02T13:01:24;13.02;;;6.55;;
53497;SDS011;39382;47.168;16.008;2024-03-02T13:03:51;12.20;;;5.68;;
53497;SDS011;39382;47.168;16.008;2024-03-02T13:06:18;10.60;;;5.93;;
53497;SDS011;39382;47.168;16.008;2024-03-02T13:08:45;12.63;;;6.72;;
53497;SDS011;39382;47.168;16.008;2024-03-02T13:11:11;15.93;;;6.72;;
53497;SDS011;39382;47.168;16.008;2024-03-02T13:13:38;8.80;;;5.13;;
53497;SDS011;39382;47.168;16.008;2024-03-02T13:16:07;15.55;;;6.82;;
53497;SDS011;39382;47.168;16.008;2024-03-02T13:18:34;9.82;;;5.55;;
53497;SDS011;39382;47.168;16.008;2024-03-02T13:20:59;11.23;;;6.45;;
53497;SDS011;39382;47.168;16.008;2024-03-02T13:23:25;8.93;;;5.43;;
53497;SDS011;39382;47.168;16.008;2024-03-02T13:25:51;10.05;;;5.32;;
53497;SDS011;39382;47.168;16.008;2024-03-02T13:28:16;5.80;;;3.78;;
53497;SDS011;39382;47.168;16.008;2024-03-02T13:30:42;5.85;;;3.53;;
53497;SDS011;39382;47.168;16.008;2024-03-02T13:33:08;8.18;;;4.22;;
53497;SDS011;39382;47.168;16.008;2024-03-02T13:35:34;6.82;;;3.70;;
53497;SDS011;39382;47.168;16.008;2024-03-02T13:37:59;8.05;;;4.57;;
53497;SDS011;39382;47.168;16.008;2024-03-02T13:40:25;14.52;;;5.35;;
53497;SDS011;39382;47.168;16.008;2024-03-02T13:42:51;11.95;;;4.18;;
53497;SDS011;39382;47.168;16.008;2024-03-02T13:45:18;8.77;;;3.95;;
53497;SDS011;39382;47.168;16.008;2024-03-02T13:47:44;9.68;;;4.40;;
53497;SDS011;39382;47.168;16.008;2024-03-02T13:50:10;9.77;;;3.80;;
53497;SDS011;39382;47.168;16.008;2024-03-02T13:52:35;8.38;;;4.45;;
53497;SDS011;39382;47.168;16.008;2024-03-02T13:55:01;8.05;;;4.18;;
53497;SDS011;39382;47.168;16.008;2024-03-02T13:57:27;7.78;;;4.25;;
53497;SDS011;39382;47.168;16.008;2024-03-02T13:59:53;11.32;;;4.50;;
53497;SDS011;39382;47.168;16.008;2024-03-02T14:02:19;7.55;;;4.28;;
53497;SDS011;39382;47.168;16.008;2024-03-02T14:04:45;8.98;;;4.40;;
53497;SDS011;39382;47.168;16.008;2024-03-02T14:07:13;6.93;;;4.10;;
53497;SDS011;39382;47.168;16.008;2024-03-02T14:09:39;7.68;;;4.93;;
53497;SDS011;39382;47.168;16.008;2024-03-02T14:12:04;7.43;;;4.68;;
53497;SDS011;39382;47.168;16.008;2024-03-02T14:14:31;10.57;;;5.88;;
53497;SDS011;39382;47.168;16.008;2024-03-02T14:16:57;10.60;;;4.50;;
53497;SDS011;39382;47.168;16.008;2024-03-02T14:19:28;10.95;;;5.45;;
53497;SDS011;39382;47.168;16.008;2024-03-02T14:21:54;9.93;;;3.97;;